Baden-Oos Airport EDTB

Flugplatz Daten

Name: Baden-Oos Airport

Ident: EDTB

Lat: 48,7919426

Long: 8,185832977

Platzhöhe: 404 ft

IataCode:

City: Baden-Baden

Metar

2017/12/01 21:00
EDTB 012100Z VRB01KT 9999 SCT016 06/05 Q1012

Taf

Gewünschte Webcam nicht vorhanden? Dann fügen Sie eine hinzu. Sie wird dann so schnell wie möglich freigeschaltet
Url: Title: